Time,TemperatureF,DewpointF,PressureIn,WindDirection,WindDirectionDegrees,WindSpeedMPH,WindSpeedGustMPH,Humidity,HourlyPrecipIn,Conditions,Clouds,dailyrainin,SolarRadiationWatts/m^2,SoftwareType,DateUTC
2013-06-11 00:00:00,58.1,58.1,29.95,East,88,0.0,0.0,100,0.00,,,-99.99,1.0,HOBO +U30 +Weather +,2013-06-11 04:00:00,
2013-06-11 00:10:00,58.2,58.2,29.93,East,88,0.0,0.0,100,0.00,,,-99.99,1.0,HOBO +U30 +Weather +,2013-06-11 04:10:00,
2013-06-11 00:20:00,58.4,58.4,29.93,East,88,0.0,0.0,100,0.00,,,-99.99,1.0,HOBO +U30 +Weather +,2013-06-11 04:20:00,
2013-06-11 00:30:00,58.5,58.6,29.93,East,88,0.0,0.0,100,0.00,,,-99.99,1.0,HOBO +U30 +Weather +,2013-06-11 04:30:00,
2013-06-11 00:31:00,58.7,58.7,29.93,East,88,0.0,0.0,100,0.00,,,-99.99,1.0,HOBO +U30 +Weather +,2013-06-11 04:31:00,
2013-06-11 00:40:00,58.8,58.8,29.92,East,88,0.0,0.0,100,0.00,,,-99.99,1.0,HOBO +U30 +Weather +,2013-06-11 04:40:00,
2013-06-11 00:41:00,58.7,58.7,29.93,East,88,0.0,0.0,100,0.00,,,-99.99,1.0,HOBO +U30 +Weather +,2013-06-11 04:41:00,
2013-06-11 00:50:00,58.8,58.9,29.92,East,88,0.0,0.0,100,0.00,,,-99.99,1.0,HOBO +U30 +Weather +,2013-06-11 04:50:00,
2013-06-11 01:00:00,58.9,59.0,29.91,East,88,0.0,0.0,100,0.00,,,-99.99,1.0,HOBO +U30 +Weather +,2013-06-11 05:00:00,
2013-06-11 01:10:00,59.0,59.0,29.91,East,88,0.0,0.0,100,0.00,,,-99.99,1.0,HOBO +U30 +Weather +,2013-06-11 05:10:00,
2013-06-11 01:20:00,59.1,59.1,29.90,East,88,0.0,0.0,100,0.00,,,-99.99,1.0,HOBO +U30 +Weather +,2013-06-11 05:20:00,
2013-06-11 01:21:00,59.1,59.1,29.88,East,88,0.0,0.0,100,0.00,,,-99.99,1.0,HOBO +U30 +Weather +,2013-06-11 05:21:00,
2013-06-11 01:30:00,59.2,59.2,29.87,East,88,0.0,0.0,100,0.00,,,-99.99,1.0,HOBO +U30 +Weather +,2013-06-11 05:30:00,
2013-06-11 01:31:00,59.1,59.1,29.88,East,90,0.0,0.0,100,0.00,,,-99.99,1.0,HOBO +U30 +Weather +,2013-06-11 05:31:00,
2013-06-11 01:40:00,59.2,59.2,29.87,East,90,0.0,0.0,100,0.00,,,-99.99,1.0,HOBO +U30 +Weather +,2013-06-11 05:40:00,
2013-06-11 01:41:00,59.2,59.2,29.88,East,90,0.0,0.0,100,0.00,,,-99.99,1.0,HOBO +U30 +Weather +,2013-06-11 05:41:00,
2013-06-11 01:50:00,59.1,59.2,29.85,East,91,0.0,0.0,100,0.00,,,-99.99,1.0,HOBO +U30 +Weather +,2013-06-11 05:50:00,
2013-06-11 01:51:00,59.2,59.2,29.87,East,88,0.0,0.0,100,0.00,,,-99.99,1.0,HOBO +U30 +Weather +,2013-06-11 05:51:00,
2013-06-11 02:00:00,59.1,59.1,29.85,East,91,0.0,0.0,100,0.00,,,-99.99,1.0,HOBO +U30 +Weather +,2013-06-11 06:00:00,
2013-06-11 02:01:00,59.1,59.2,29.85,East,90,0.0,0.0,100,0.00,,,-99.99,1.0,HOBO +U30 +Weather +,2013-06-11 06:01:00,
2013-06-11 02:10:00,59.1,59.1,29.85,East,90,0.0,0.0,100,0.00,,,-99.99,1.0,HOBO +U30 +Weather +,2013-06-11 06:10:00,
2013-06-11 02:11:00,59.2,59.2,29.85,East,91,0.0,0.0,100,0.00,,,-99.99,1.0,HOBO +U30 +Weather +,2013-06-11 06:11:00,
2013-06-11 02:20:00,59.2,59.2,29.85,East,91,0.0,0.0,100,0.00,,,-99.99,1.0,HOBO +U30 +Weather +,2013-06-11 06:20:00,
2013-06-11 02:21:00,59.2,59.2,29.85,East,90,0.0,0.0,100,0.00,,,-99.99,1.0,HOBO +U30 +Weather +,2013-06-11 06:21:00,
2013-06-11 02:30:00,59.1,59.2,29.84,East,90,0.0,0.0,100,0.00,,,-99.99,1.0,HOBO +U30 +Weather +,2013-06-11 06:30:00,
2013-06-11 02:31:00,59.2,59.2,29.85,East,90,0.0,0.0,100,0.00,,,-99.99,1.0,HOBO +U30 +Weather +,2013-06-11 06:31:00,
2013-06-11 02:32:00,59.1,59.2,29.83,East,90,0.0,0.0,100,0.00,,,-99.99,1.0,HOBO +U30 +Weather +,2013-06-11 06:32:00,
2013-06-11 02:33:00,59.1,59.2,29.83,East,90,0.0,0.0,100,0.00,,,-99.99,1.0,HOBO +U30 +Weather +,2013-06-11 06:33:00,
2013-06-11 02:40:00,59.2,59.2,29.83,East,90,0.0,0.0,100,0.00,,,-99.99,1.0,HOBO +U30 +Weather +,2013-06-11 06:40:00,
2013-06-11 02:41:00,59.2,59.2,29.82,East,90,0.0,0.0,100,0.00,,,-99.99,1.0,HOBO +U30 +Weather +,2013-06-11 06:41:00,
2013-06-11 02:43:00,59.1,59.2,29.83,East,90,0.0,0.0,100,0.00,,,-99.99,1.0,HOBO +U30 +Weather +,2013-06-11 06:43:00,
2013-06-11 02:50:00,59.3,59.3,29.83,East,90,0.0,0.0,100,0.00,,,-99.99,1.0,HOBO +U30 +Weather +,2013-06-11 06:50:00,
2013-06-11 02:51:00,59.2,59.2,29.82,East,90,0.0,0.0,100,0.00,,,-99.99,1.0,HOBO +U30 +Weather +,2013-06-11 06:51:00,
2013-06-11 02:52:00,59.3,59.3,29.83,East,90,0.0,0.0,100,0.00,,,-99.99,1.0,HOBO +U30 +Weather +,2013-06-11 06:52:00,
2013-06-11 03:00:00,59.4,59.4,29.82,East,90,0.0,0.0,100,0.00,,,-99.99,1.0,HOBO +U30 +Weather +,2013-06-11 07:00:00,
2013-06-11 03:01:00,59.4,59.4,29.82,East,90,0.0,0.0,100,0.00,,,-99.99,1.0,HOBO +U30 +Weather +,2013-06-11 07:01:00,
2013-06-11 03:02:00,59.3,59.3,29.82,East,90,0.0,0.0,100,0.00,,,-99.99,1.0,HOBO +U30 +Weather +,2013-06-11 07:02:00,
2013-06-11 03:10:00,59.5,59.6,29.81,East,90,0.0,0.0,100,0.00,,,-99.99,1.0,HOBO +U30 +Weather +,2013-06-11 07:10:00,
2013-06-11 03:11:00,59.4,59.4,29.82,East,90,0.0,0.0,100,0.00,,,-99.99,1.0,HOBO +U30 +Weather +,2013-06-11 07:11:00,
2013-06-11 03:20:00,59.5,59.6,29.80,East,90,0.0,0.0,100,0.00,,,-99.99,1.0,HOBO +U30 +Weather +,2013-06-11 07:20:00,
2013-06-11 03:30:00,59.7,59.7,29.80,East,90,0.0,0.0,100,0.00,,,-99.99,1.0,HOBO +U30 +Weather +,2013-06-11 07:30:00,
2013-06-11 03:31:00,59.8,59.9,29.79,East,90,0.0,0.0,100,0.00,,,-99.99,1.0,HOBO +U30 +Weather +,2013-06-11 07:31:00,
2013-06-11 03:40:00,59.9,60.0,29.79,East,90,0.0,0.0,100,0.00,,,-99.99,1.0,HOBO +U30 +Weather +,2013-06-11 07:40:00,
2013-06-11 03:41:00,59.8,59.9,29.79,East,90,0.0,0.0,100,0.00,,,-99.99,1.0,HOBO +U30 +Weather +,2013-06-11 07:41:00,
2013-06-11 03:50:00,60.0,60.1,29.78,East,90,0.0,0.0,100,0.00,,,-99.99,1.0,HOBO +U30 +Weather +,2013-06-11 07:50:00,
2013-06-11 03:51:00,59.9,60.0,29.78,East,90,0.0,0.0,100,0.00,,,-99.99,1.0,HOBO +U30 +Weather +,2013-06-11 07:51:00,
2013-06-11 04:00:00,60.1,60.1,29.78,East,90,0.0,0.0,100,0.00,,,-99.99,1.0,HOBO +U30 +Weather +,2013-06-11 08:00:00,
2013-06-11 04:01:00,60.0,60.1,29.77,East,90,0.0,0.0,100,0.00,,,-99.99,1.0,HOBO +U30 +Weather +,2013-06-11 08:01:00,
2013-06-11 04:10:00,60.3,60.3,29.78,East,90,0.0,0.0,100,0.00,,,-99.99,1.0,HOBO +U30 +Weather +,2013-06-11 08:10:00,
2013-06-11 04:11:00,60.1,60.1,29.77,East,90,0.0,0.0,100,0.00,,,-99.99,1.0,HOBO +U30 +Weather +,2013-06-11 08:11:00,
2013-06-11 04:20:00,60.3,60.3,29.78,East,90,0.0,0.0,100,0.00,,,-99.99,1.0,HOBO +U30 +Weather +,2013-06-11 08:20:00,
2013-06-11 04:21:00,60.3,60.4,29.77,East,90,0.0,0.0,100,0.00,,,-99.99,1.0,HOBO +U30 +Weather +,2013-06-11 08:21:00,
2013-06-11 04:22:00,60.3,60.4,29.77,East,90,0.0,0.0,100,0.00,,,-99.99,1.0,HOBO +U30 +Weather +,2013-06-11 08:22:00,
2013-06-11 04:30:00,60.5,60.5,29.76,East,90,0.0,0.0,100,0.00,,,-99.99,1.0,HOBO +U30 +Weather +,2013-06-11 08:30:00,
2013-06-11 04:31:00,60.5,60.5,29.76,East,90,0.0,0.0,100,0.00,,,-99.99,1.0,HOBO +U30 +Weather +,2013-06-11 08:31:00,
2013-06-11 04:32:00,60.3,60.4,29.78,East,90,0.0,0.0,100,0.00,,,-99.99,1.0,HOBO +U30 +Weather +,2013-06-11 08:32:00,
2013-06-11 04:41:00,60.6,60.6,29.76,East,90,0.0,0.0,100,0.00,,,-99.99,1.0,HOBO +U30 +Weather +,2013-06-11 08:41:00,
2013-06-11 04:50:00,60.9,60.9,29.75,East,90,0.0,0.0,100,0.00,,,-99.99,1.0,HOBO +U30 +Weather +,2013-06-11 08:50:00,
2013-06-11 04:51:00,60.7,60.8,29.76,East,90,0.0,0.0,100,0.00,,,-99.99,1.0,HOBO +U30 +Weather +,2013-06-11 08:51:00,
2013-06-11 05:00:00,60.9,61.0,29.76,East,90,0.0,0.0,100,0.00,,,-99.99,1.0,HOBO +U30 +Weather +,2013-06-11 09:00:00,
2013-06-11 05:01:00,60.9,60.9,29.76,East,90,0.0,0.0,100,0.00,,,-99.99,1.0,HOBO +U30 +Weather +,2013-06-11 09:01:00,
2013-06-11 05:10:00,61.2,61.2,29.75,East,90,0.0,0.0,100,0.00,,,-99.99,1.0,HOBO +U30 +Weather +,2013-06-11 09:10:00,
2013-06-11 05:11:00,61.0,61.1,29.75,East,90,0.0,0.0,100,0.00,,,-99.99,1.0,HOBO +U30 +Weather +,2013-06-11 09:11:00,
2013-06-11 05:20:00,61.7,61.7,29.74,East,90,0.0,0.0,100,0.00,,,-99.99,1.0,HOBO +U30 +Weather +,2013-06-11 09:20:00,
2013-06-11 05:21:00,61.2,61.3,29.75,East,90,0.0,0.0,100,0.00,,,-99.99,1.0,HOBO +U30 +Weather +,2013-06-11 09:21:00,
2013-06-11 05:30:00,61.8,61.8,29.74,East,90,0.0,0.0,100,0.00,,,-99.99,1.0,HOBO +U30 +Weather +,2013-06-11 09:30:00,
2013-06-11 05:31:00,62.4,62.4,29.74,East,90,0.0,0.0,100,0.00,,,-99.99,1.0,HOBO +U30 +Weather +,2013-06-11 09:31:00,
2013-06-11 05:40:00,62.7,62.7,29.74,East,90,0.0,0.0,100,0.00,,,-99.99,1.0,HOBO +U30 +Weather +,2013-06-11 09:40:00,
2013-06-11 05:41:00,62.5,62.5,29.74,East,90,0.0,0.0,100,0.00,,,-99.99,1.0,HOBO +U30 +Weather +,2013-06-11 09:41:00,
2013-06-11 05:50:00,62.9,62.9,29.73,East,90,0.0,0.0,100,0.00,,,-99.99,2.0,HOBO +U30 +Weather +,2013-06-11 09:50:00,
2013-06-11 05:51:00,62.7,62.7,29.74,East,90,0.0,0.0,100,0.00,,,-99.99,2.0,HOBO +U30 +Weather +,2013-06-11 09:51:00,
2013-06-11 05:52:00,62.9,63.0,29.72,East,90,0.0,0.0,100,0.00,,,-99.99,2.0,HOBO +U30 +Weather +,2013-06-11 09:52:00,
2013-06-11 06:00:00,63.1,63.2,29.72,East,90,0.0,0.0,100,0.00,,,-99.99,1.0,HOBO +U30 +Weather +,2013-06-11 10:00:00,
2013-06-11 06:01:00,63.2,63.2,29.72,East,90,0.0,0.0,100,0.00,,,-99.99,2.0,HOBO +U30 +Weather +,2013-06-11 10:01:00,
2013-06-11 06:02:00,63.0,63.0,29.73,East,90,0.0,0.0,100,0.00,,,-99.99,2.0,HOBO +U30 +Weather +,2013-06-11 10:02:00,
2013-06-11 06:10:00,63.5,63.5,29.72,East,90,0.0,0.0,100,0.00,,,-99.99,3.0,HOBO +U30 +Weather +,2013-06-11 10:10:00,
2013-06-11 06:11:00,63.2,63.2,29.72,East,90,0.0,0.0,100,0.00,,,-99.99,2.0,HOBO +U30 +Weather +,2013-06-11 10:11:00,
2013-06-11 06:20:00,63.5,63.6,29.72,East,90,0.0,0.0,100,0.00,,,-99.99,3.0,HOBO +U30 +Weather +,2013-06-11 10:20:00,
2013-06-11 06:30:00,64.1,64.1,29.72,East,90,0.0,0.0,100,0.00,,,-99.99,3.0,HOBO +U30 +Weather +,2013-06-11 10:30:00,
2013-06-11 06:40:00,64.3,64.4,29.72,East,90,0.0,0.0,100,0.00,,,-99.99,3.0,HOBO +U30 +Weather +,2013-06-11 10:40:00,
2013-06-11 06:50:00,64.8,64.8,29.71,East,90,0.0,0.0,100,0.00,,,-99.99,3.0,HOBO +U30 +Weather +,2013-06-11 10:50:00,
2013-06-11 07:00:00,65.0,65.0,29.71,East,90,0.0,0.0,100,0.00,,,-99.99,3.0,HOBO +U30 +Weather +,2013-06-11 11:00:00,
2013-06-11 07:10:00,65.3,65.3,29.70,East,90,0.0,0.0,100,0.00,,,-99.99,7.0,HOBO +U30 +Weather +,2013-06-11 11:10:00,
2013-06-11 07:20:00,65.5,65.5,29.70,East,90,0.0,0.0,100,0.00,,,-99.99,6.0,HOBO +U30 +Weather +,2013-06-11 11:20:00,
2013-06-11 07:30:00,65.8,65.9,29.69,East,90,0.0,0.0,100,0.00,,,-99.99,7.0,HOBO +U30 +Weather +,2013-06-11 11:30:00,
2013-06-11 07:40:00,65.9,65.9,29.69,East,90,0.0,0.0,100,0.00,,,-99.99,14.0,HOBO +U30 +Weather +,2013-06-11 11:40:00,
2013-06-11 07:50:00,65.8,65.8,29.70,East,90,0.0,0.0,100,0.00,,,-99.99,24.0,HOBO +U30 +Weather +,2013-06-11 11:50:00,
2013-06-11 08:00:00,65.9,66.0,29.70,East,90,0.0,0.0,100,0.00,,,-99.99,26.0,HOBO +U30 +Weather +,2013-06-11 12:00:00,
2013-06-11 08:01:00,66.0,66.0,29.69,East,90,0.0,0.0,100,0.00,,,-99.99,27.0,HOBO +U30 +Weather +,2013-06-11 12:01:00,
2013-06-11 08:10:00,65.8,65.8,29.69,East,90,0.0,0.0,100,0.00,,,-99.99,19.0,HOBO +U30 +Weather +,2013-06-11 12:10:00,
2013-06-11 08:11:00,66.0,66.1,29.69,East,90,0.0,0.0,100,0.00,,,-99.99,27.0,HOBO +U30 +Weather +,2013-06-11 12:11:00,
2013-06-11 08:20:00,65.8,65.8,29.69,East,90,0.0,0.0,100,0.00,,,-99.99,24.0,HOBO +U30 +Weather +,2013-06-11 12:20:00,
2013-06-11 08:30:00,65.6,65.7,29.68,East,90,0.0,0.0,100,0.00,,,-99.99,24.0,HOBO +U30 +Weather +,2013-06-11 12:30:00,
2013-06-11 08:40:00,65.8,65.8,29.68,East,90,0.0,0.0,100,0.00,,,-99.99,24.0,HOBO +U30 +Weather +,2013-06-11 12:40:00,
2013-06-11 08:50:00,65.6,65.7,29.68,East,90,0.0,0.0,100,0.00,,,-99.99,23.0,HOBO +U30 +Weather +,2013-06-11 12:50:00,
2013-06-11 08:51:00,65.8,65.8,29.68,East,90,0.0,0.0,100,0.00,,,-99.99,37.0,HOBO +U30 +Weather +,2013-06-11 12:51:00,
2013-06-11 08:52:00,65.9,66.0,29.68,East,90,0.0,0.0,100,0.00,,,-99.99,38.0,HOBO +U30 +Weather +,2013-06-11 12:52:00,
2013-06-11 08:53:00,66.0,66.1,29.68,East,90,0.0,0.0,100,0.00,,,-99.99,38.0,HOBO +U30 +Weather +,2013-06-11 12:53:00,
2013-06-11 09:00:00,66.3,66.3,29.68,East,90,0.0,0.0,100,0.00,,,-99.99,29.0,HOBO +U30 +Weather +,2013-06-11 13:00:00,
2013-06-11 09:01:00,66.2,66.2,29.67,East,90,0.0,0.0,100,0.00,,,-99.99,33.0,HOBO +U30 +Weather +,2013-06-11 13:01:00,
2013-06-11 09:03:00,66.2,66.3,29.68,East,90,0.0,0.0,100,0.00,,,-99.99,42.0,HOBO +U30 +Weather +,2013-06-11 13:03:00,
2013-06-11 09:10:00,66.0,66.1,29.67,East,90,0.0,0.0,100,0.00,,,-99.99,43.0,HOBO +U30 +Weather +,2013-06-11 13:10:00,
2013-06-11 09:11:00,66.2,66.2,29.67,East,90,0.0,0.0,100,0.00,,,-99.99,34.0,HOBO +U30 +Weather +,2013-06-11 13:11:00,
2013-06-11 09:20:00,66.7,66.7,29.67,East,90,0.0,0.0,100,0.00,,,-99.99,46.0,HOBO +U30 +Weather +,2013-06-11 13:20:00,
2013-06-11 09:21:00,66.2,66.3,29.68,East,90,0.0,0.0,100,0.00,,,-99.99,44.0,HOBO +U30 +Weather +,2013-06-11 13:21:00,
2013-06-11 09:30:00,66.7,66.7,29.67,East,90,0.0,0.0,100,0.00,,,-99.99,51.0,HOBO +U30 +Weather +,2013-06-11 13:30:00,
2013-06-11 09:40:00,66.7,66.8,29.67,East,90,0.0,0.0,100,0.00,,,-99.99,44.0,HOBO +U30 +Weather +,2013-06-11 13:40:00,
2013-06-11 09:41:00,67.5,67.5,29.66,East,90,0.0,0.0,100,0.00,,,-99.99,62.0,HOBO +U30 +Weather +,2013-06-11 13:41:00,
2013-06-11 09:50:00,66.9,67.0,29.65,East,90,0.0,0.0,100,0.00,,,-99.99,58.0,HOBO +U30 +Weather +,2013-06-11 13:50:00,
2013-06-11 09:51:00,67.2,67.3,29.65,East,90,0.0,0.0,100,0.00,,,-99.99,56.0,HOBO +U30 +Weather +,2013-06-11 13:51:00,
2013-06-11 10:00:00,67.2,67.3,29.65,East,90,0.0,0.0,100,0.00,,,-99.99,64.0,HOBO +U30 +Weather +,2013-06-11 14:00:00,
2013-06-11 10:01:00,67.1,67.2,29.66,East,90,0.0,0.0,100,0.00,,,-99.99,63.0,HOBO +U30 +Weather +,2013-06-11 14:01:00,
2013-06-11 10:10:00,67.3,67.3,29.65,East,90,0.0,0.0,100,0.00,,,-99.99,58.0,HOBO +U30 +Weather +,2013-06-11 14:10:00,
2013-06-11 10:20:00,67.6,67.7,29.65,East,90,0.0,0.0,100,0.00,,,-99.99,71.0,HOBO +U30 +Weather +,2013-06-11 14:20:00,
2013-06-11 10:30:00,67.6,67.7,29.65,East,90,0.0,0.0,100,0.00,,,-99.99,48.0,HOBO +U30 +Weather +,2013-06-11 14:30:00,
2013-06-11 10:31:00,66.9,67.0,29.65,East,90,0.0,0.0,100,0.00,,,-99.99,41.0,HOBO +U30 +Weather +,2013-06-11 14:31:00,
2013-06-11 10:40:00,67.5,67.5,29.65,East,90,0.0,0.0,100,0.00,,,-99.99,89.0,HOBO +U30 +Weather +,2013-06-11 14:40:00,
2013-06-11 10:41:00,66.9,67.0,29.65,East,90,0.0,0.0,100,0.00,,,-99.99,66.0,HOBO +U30 +Weather +,2013-06-11 14:41:00,
2013-06-11 10:50:00,69.3,69.4,29.65,East,90,0.0,0.0,100,0.00,,,-99.99,78.0,HOBO +U30 +Weather +,2013-06-11 14:50:00,
2013-06-11 10:51:00,68.1,68.2,29.65,East,90,0.0,0.0,100,0.00,,,-99.99,102.0,HOBO +U30 +Weather +,2013-06-11 14:51:00,
2013-06-11 11:00:00,69.5,69.5,29.65,East,90,0.0,0.0,100,0.00,,,-99.99,83.0,HOBO +U30 +Weather +,2013-06-11 15:00:00,
2013-06-11 11:01:00,69.5,69.6,29.65,East,90,0.0,0.0,100,0.00,,,-99.99,82.0,HOBO +U30 +Weather +,2013-06-11 15:01:00,
2013-06-11 11:10:00,69.5,69.6,29.65,East,90,0.0,0.0,100,0.00,,,-99.99,113.0,HOBO +U30 +Weather +,2013-06-11 15:10:00,
2013-06-11 11:11:00,69.5,69.6,29.65,East,90,0.0,0.0,100,0.00,,,-99.99,92.0,HOBO +U30 +Weather +,2013-06-11 15:11:00,
2013-06-11 11:20:00,70.9,70.9,29.65,East,88,0.0,0.0,100,0.00,,,-99.99,97.0,HOBO +U30 +Weather +,2013-06-11 15:20:00,
2013-06-11 11:21:00,69.6,69.7,29.65,East,90,0.0,0.0,100,0.00,,,-99.99,133.0,HOBO +U30 +Weather +,2013-06-11 15:21:00,
2013-06-11 11:30:00,69.2,69.2,29.65,East,88,0.0,0.0,100,0.00,,,-99.99,93.0,HOBO +U30 +Weather +,2013-06-11 15:30:00,
2013-06-11 11:31:00,70.3,70.4,29.65,East,90,0.0,0.0,100,0.00,,,-99.99,98.0,HOBO +U30 +Weather +,2013-06-11 15:31:00,
2013-06-11 11:40:00,69.4,69.4,29.65,East,90,0.0,0.0,100,0.00,,,-99.99,92.0,HOBO +U30 +Weather +,2013-06-11 15:40:00,
2013-06-11 11:41:00,69.9,69.9,29.65,East,88,0.0,0.0,100,0.00,,,-99.99,103.0,HOBO +U30 +Weather +,2013-06-11 15:41:00,
2013-06-11 11:50:00,69.6,69.7,29.65,East,88,0.0,0.0,100,0.00,,,-99.99,108.0,HOBO +U30 +Weather +,2013-06-11 15:50:00,
2013-06-11 11:51:00,69.7,69.7,29.65,East,90,0.0,0.0,100,0.00,,,-99.99,93.0,HOBO +U30 +Weather +,2013-06-11 15:51:00,
2013-06-11 11:52:00,70.3,70.4,29.65,East,88,0.0,0.0,100,0.00,,,-99.99,84.0,HOBO +U30 +Weather +,2013-06-11 15:52:00,
2013-06-11 11:53:00,70.4,70.4,29.65,East,88,0.0,0.0,100,0.00,,,-99.99,89.0,HOBO +U30 +Weather +,2013-06-11 15:53:00,
2013-06-11 12:00:00,69.6,69.7,29.65,East,88,0.0,0.0,100,0.00,,,-99.99,78.0,HOBO +U30 +Weather +,2013-06-11 16:00:00,
2013-06-11 12:01:00,69.7,69.8,29.65,East,88,0.0,0.0,100,0.00,,,-99.99,127.0,HOBO +U30 +Weather +,2013-06-11 16:01:00,
2013-06-11 12:03:00,70.4,70.4,29.65,East,88,0.0,0.0,100,0.00,,,-99.99,89.0,HOBO +U30 +Weather +,2013-06-11 16:03:00,
2013-06-11 12:10:00,74.6,74.7,29.64,East,88,0.0,0.0,100,0.00,,,-99.99,143.0,HOBO +U30 +Weather +,2013-06-11 16:10:00,
2013-06-11 12:11:00,69.9,69.9,29.65,East,88,0.0,0.0,100,0.00,,,-99.99,147.0,HOBO +U30 +Weather +,2013-06-11 16:11:00,
2013-06-11 12:20:00,74.5,74.6,29.63,East,88,0.0,0.0,100,0.00,,,-99.99,126.0,HOBO +U30 +Weather +,2013-06-11 16:20:00,
2013-06-11 12:30:00,73.7,73.7,29.65,East,88,0.0,0.0,100,0.00,,,-99.99,138.0,HOBO +U30 +Weather +,2013-06-11 16:30:00,
2013-06-11 12:40:00,74.6,74.6,29.63,East,88,0.0,0.0,100,0.00,,,-99.99,162.0,HOBO +U30 +Weather +,2013-06-11 16:40:00,
2013-06-11 12:50:00,76.0,76.0,29.63,East,88,0.0,0.0,100,0.00,,,-99.99,188.0,HOBO +U30 +Weather +,2013-06-11 16:50:00,
2013-06-11 13:00:00,76.2,76.3,29.64,East,88,0.0,0.0,100,0.00,,,-99.99,138.0,HOBO +U30 +Weather +,2013-06-11 17:00:00,
2013-06-11 13:10:00,77.7,76.7,29.63,East,88,0.0,0.0,96,0.00,,,-99.99,159.0,HOBO +U30 +Weather +,2013-06-11 17:10:00,
2013-06-11 13:20:00,77.3,74.8,29.63,East,88,0.0,0.0,92,0.00,,,-99.99,187.0,HOBO +U30 +Weather +,2013-06-11 17:20:00,
2013-06-11 13:30:00,80.8,76.4,29.62,East,88,0.0,0.0,86,0.00,,,-99.99,197.0,HOBO +U30 +Weather +,2013-06-11 17:30:00,
2013-06-11 13:40:00,79.8,74.5,29.62,East,88,0.0,0.0,83,0.00,,,-99.99,202.0,HOBO +U30 +Weather +,2013-06-11 17:40:00,
2013-06-11 13:44:00,79.8,75.3,29.62,East,88,0.0,0.0,85,0.00,,,-99.99,261.0,HOBO +U30 +Weather +,2013-06-11 17:44:00,
2013-06-11 13:45:00,80.9,76.3,29.62,East,88,0.0,0.0,85,0.00,,,-99.99,236.0,HOBO +U30 +Weather +,2013-06-11 17:45:00,
2013-06-11 13:46:00,81.4,76.4,29.62,East,90,0.0,0.0,84,0.00,,,-99.99,257.0,HOBO +U30 +Weather +,2013-06-11 17:46:00,
2013-06-11 13:56:00,81.7,75.6,29.62,East,88,0.0,0.0,81,0.00,,,-99.99,226.0,HOBO +U30 +Weather +,2013-06-11 17:56:00,
2013-06-11 14:06:00,81.3,75.3,29.62,East,88,0.0,0.0,81,0.00,,,-99.99,234.0,HOBO +U30 +Weather +,2013-06-11 18:06:00,
2013-06-11 14:15:00,83.0,76.4,29.60,East,88,0.0,0.0,80,0.00,,,-99.99,186.0,HOBO +U30 +Weather +,2013-06-11 18:15:00,
2013-06-11 14:25:00,83.7,76.4,29.61,East,88,0.0,0.0,78,0.00,,,-99.99,223.0,HOBO +U30 +Weather +,2013-06-11 18:25:00,
2013-06-11 14:35:00,82.6,75.4,29.59,East,88,0.0,0.0,78,0.00,,,-99.99,324.0,HOBO +U30 +Weather +,2013-06-11 18:35:00,
2013-06-11 14:45:00,79.0,72.5,29.60,East,90,0.0,0.0,80,0.00,,,-99.99,177.0,HOBO +U30 +Weather +,2013-06-11 18:45:00,
2013-06-11 14:55:00,80.4,72.2,29.60,East,88,0.0,0.0,76,0.00,,,-99.99,206.0,HOBO +U30 +Weather +,2013-06-11 18:55:00,
2013-06-11 14:56:00,76.4,71.3,29.60,East,88,0.0,0.0,84,0.00,,,-99.99,154.0,HOBO +U30 +Weather +,2013-06-11 18:56:00,
2013-06-11 15:06:00,76.6,71.2,29.60,East,88,0.0,0.0,83,0.00,,,-99.99,176.0,HOBO +U30 +Weather +,2013-06-11 19:06:00,
2013-06-11 15:16:00,77.5,71.4,29.60,East,88,0.0,0.0,81,0.00,,,-99.99,174.0,HOBO +U30 +Weather +,2013-06-11 19:16:00,
2013-06-11 15:26:00,79.1,74.0,29.60,East,90,0.0,0.0,84,0.00,,,-99.99,223.0,HOBO +U30 +Weather +,2013-06-11 19:26:00,
2013-06-11 15:36:00,80.4,73.0,29.60,East,88,0.0,0.0,78,0.00,,,-99.99,91.0,HOBO +U30 +Weather +,2013-06-11 19:36:00,
2013-06-11 15:46:00,78.5,72.6,29.60,East,88,0.0,0.0,81,0.00,,,-99.99,151.0,HOBO +U30 +Weather +,2013-06-11 19:46:00,
2013-06-11 15:56:00,80.5,73.9,29.58,East,88,0.0,0.0,80,0.00,,,-99.99,129.0,HOBO +U30 +Weather +,2013-06-11 19:56:00,
2013-06-11 16:06:00,83.0,75.8,29.58,East,88,0.0,0.0,78,0.00,,,-99.99,366.0,HOBO +U30 +Weather +,2013-06-11 20:06:00,
2013-06-11 16:16:00,84.2,75.9,29.58,East,90,0.0,0.0,76,0.00,,,-99.99,141.0,HOBO +U30 +Weather +,2013-06-11 20:16:00,
2013-06-11 16:26:00,79.8,72.2,29.57,East,88,0.0,0.0,77,0.00,,,-99.99,123.0,HOBO +U30 +Weather +,2013-06-11 20:26:00,
2013-06-11 16:36:00,81.8,73.9,29.57,East,88,0.0,0.0,76,0.00,,,-99.99,121.0,HOBO +U30 +Weather +,2013-06-11 20:36:00,
2013-06-11 16:46:00,82.0,73.2,29.57,East,90,0.0,0.0,74,0.00,,,-99.99,151.0,HOBO +U30 +Weather +,2013-06-11 20:46:00,
2013-06-11 16:56:00,79.7,71.2,29.57,East,90,0.0,0.0,75,0.00,,,-99.99,76.0,HOBO +U30 +Weather +,2013-06-11 20:56:00,
2013-06-11 17:06:00,77.3,70.9,29.57,East,88,0.0,0.0,80,0.00,,,-99.99,123.0,HOBO +U30 +Weather +,2013-06-11 21:06:00,
2013-06-11 17:16:00,77.2,70.6,29.56,East,88,0.0,0.0,80,0.00,,,-99.99,96.0,HOBO +U30 +Weather +,2013-06-11 21:16:00,
2013-06-11 17:26:00,72.7,67.7,29.56,East,88,0.0,0.0,84,0.00,,,-99.99,77.0,HOBO +U30 +Weather +,2013-06-11 21:26:00,
2013-06-11 17:36:00,73.1,68.3,29.56,East,88,0.0,0.0,84,0.00,,,-99.99,91.0,HOBO +U30 +Weather +,2013-06-11 21:36:00,
2013-06-11 17:46:00,72.3,67.5,29.56,East,88,0.0,0.0,84,0.00,,,-99.99,88.0,HOBO +U30 +Weather +,2013-06-11 21:46:00,
2013-06-11 17:56:00,74.0,69.4,29.56,East,88,0.0,0.0,85,0.00,,,-99.99,53.0,HOBO +U30 +Weather +,2013-06-11 21:56:00,
2013-06-11 18:06:00,74.2,69.3,29.55,East,88,0.0,0.0,84,0.00,,,-99.99,47.0,HOBO +U30 +Weather +,2013-06-11 22:06:00,
2013-06-11 18:16:00,69.1,65.5,29.55,East,88,0.0,0.0,88,0.00,,,-99.99,9.0,HOBO +U30 +Weather +,2013-06-11 22:16:00,
2013-06-11 18:26:00,67.3,64.8,29.55,East,88,0.0,0.0,91,0.00,,,-99.99,13.0,HOBO +U30 +Weather +,2013-06-11 22:26:00,
2013-06-11 18:36:00,66.7,64.6,29.55,East,88,0.0,0.0,92,0.00,,,-99.99,6.0,HOBO +U30 +Weather +,2013-06-11 22:36:00,
2013-06-11 18:46:00,66.3,64.4,29.56,East,88,0.0,0.0,93,0.00,,,-99.99,7.0,HOBO +U30 +Weather +,2013-06-11 22:46:00,
2013-06-11 18:56:00,66.1,64.5,29.55,East,88,0.0,0.0,94,0.00,,,-99.99,3.0,HOBO +U30 +Weather +,2013-06-11 22:56:00,
2013-06-11 19:06:00,65.5,64.1,29.56,East,88,0.0,0.0,95,0.00,,,-99.99,2.0,HOBO +U30 +Weather +,2013-06-11 23:06:00,
2013-06-11 19:16:00,64.5,63.6,29.55,East,88,0.0,0.0,96,0.00,,,-99.99,1.0,HOBO +U30 +Weather +,2013-06-11 23:16:00,
2013-06-11 19:17:00,64.1,63.5,29.54,East,88,0.0,0.0,97,0.00,,,-99.99,1.0,HOBO +U30 +Weather +,2013-06-11 23:17:00,
2013-06-11 19:26:00,63.9,63.4,29.54,East,88,0.0,0.0,98,0.00,,,-99.99,1.0,HOBO +U30 +Weather +,2013-06-11 23:26:00,
2013-06-11 19:27:00,64.1,63.5,29.54,East,88,0.0,0.0,98,0.00,,,-99.99,1.0,HOBO +U30 +Weather +,2013-06-11 23:27:00,
2013-06-11 19:36:00,63.9,63.5,29.54,East,88,0.0,0.0,98,0.00,,,-99.99,1.0,HOBO +U30 +Weather +,2013-06-11 23:36:00,
2013-06-11 19:46:00,63.8,63.5,29.53,East,88,0.0,0.0,98,0.00,,,-99.99,1.0,HOBO +U30 +Weather +,2013-06-11 23:46:00,
2013-06-11 19:56:00,63.7,63.5,29.53,East,88,0.0,0.0,99,0.00,,,-99.99,1.0,HOBO +U30 +Weather +,2013-06-11 23:56:00,
2013-06-11 20:06:00,63.6,63.6,29.52,East,88,0.0,0.0,99,0.00,,,-99.99,1.0,HOBO +U30 +Weather +,2013-06-12 00:06:00,
2013-06-11 20:16:00,63.6,63.5,29.51,East,88,0.0,0.0,99,0.00,,,-99.99,1.0,HOBO +U30 +Weather +,2013-06-12 00:16:00,
2013-06-11 20:26:00,63.5,63.6,29.51,East,88,0.0,0.0,100,0.00,,,-99.99,1.0,HOBO +U30 +Weather +,2013-06-12 00:26:00,
2013-06-11 20:36:00,63.5,63.6,29.51,East,88,0.0,0.0,100,0.00,,,-99.99,1.0,HOBO +U30 +Weather +,2013-06-12 00:36:00,
2013-06-11 20:46:00,63.7,63.8,29.50,East,88,0.0,0.0,100,0.00,,,-99.99,1.0,HOBO +U30 +Weather +,2013-06-12 00:46:00,
2013-06-11 20:56:00,63.7,63.8,29.49,East,90,0.0,0.0,100,0.00,,,-99.99,1.0,HOBO +U30 +Weather +,2013-06-12 00:56:00,
2013-06-11 21:06:00,63.5,63.6,29.50,East,88,0.0,0.0,100,0.00,,,-99.99,1.0,HOBO +U30 +Weather +,2013-06-12 01:06:00,
2013-06-11 21:16:00,63.4,63.4,29.50,East,90,0.0,0.0,100,0.00,,,-99.99,1.0,HOBO +U30 +Weather +,2013-06-12 01:16:00,
2013-06-11 21:17:00,63.5,63.5,29.50,East,88,0.0,0.0,100,0.00,,,-99.99,1.0,HOBO +U30 +Weather +,2013-06-12 01:17:00,
2013-06-11 21:26:00,63.6,63.7,29.50,East,90,0.0,0.0,100,0.00,,,-99.99,1.0,HOBO +U30 +Weather +,2013-06-12 01:26:00,
2013-06-11 21:27:00,63.5,63.5,29.50,East,88,0.0,0.0,100,0.00,,,-99.99,1.0,HOBO +U30 +Weather +,2013-06-12 01:27:00,
2013-06-11 21:36:00,63.7,63.7,29.51,East,90,0.0,0.0,100,0.00,,,-99.99,1.0,HOBO +U30 +Weather +,2013-06-12 01:36:00,
2013-06-11 21:46:00,64.0,64.0,29.51,East,90,0.0,0.0,100,0.00,,,-99.99,1.0,HOBO +U30 +Weather +,2013-06-12 01:46:00,
2013-06-11 21:56:00,63.5,63.6,29.53,East,88,0.0,0.0,100,0.00,,,-99.99,1.0,HOBO +U30 +Weather +,2013-06-12 01:56:00,
2013-06-11 22:06:00,60.6,60.7,29.54,East,90,0.0,0.0,100,0.00,,,-99.99,1.0,HOBO +U30 +Weather +,2013-06-12 02:06:00,
2013-06-11 22:16:00,57.7,57.8,29.55,East,90,0.0,0.0,100,0.00,,,-99.99,1.0,HOBO +U30 +Weather +,2013-06-12 02:16:00,
2013-06-11 22:17:00,56.3,56.3,29.55,East,90,0.0,0.0,100,0.00,,,-99.99,1.0,HOBO +U30 +Weather +,2013-06-12 02:17:00,
2013-06-11 22:26:00,55.8,55.8,29.56,East,90,0.0,0.0,100,0.00,,,-99.99,1.0,HOBO +U30 +Weather +,2013-06-12 02:26:00,
2013-06-11 22:27:00,56.2,56.3,29.55,East,90,0.0,0.0,100,0.00,,,-99.99,1.0,HOBO +U30 +Weather +,2013-06-12 02:27:00,
2013-06-11 22:36:00,55.8,55.8,29.55,East,90,0.0,0.0,100,0.00,,,-99.99,1.0,HOBO +U30 +Weather +,2013-06-12 02:36:00,
2013-06-11 22:46:00,55.6,55.6,29.56,East,90,0.0,0.0,100,0.00,,,-99.99,1.0,HOBO +U30 +Weather +,2013-06-12 02:46:00,
2013-06-11 22:56:00,55.4,55.5,29.57,East,90,0.0,0.0,100,0.00,,,-99.99,1.0,HOBO +U30 +Weather +,2013-06-12 02:56:00,
2013-06-11 23:06:00,55.4,55.5,29.56,East,90,0.0,0.0,100,0.00,,,-99.99,1.0,HOBO +U30 +Weather +,2013-06-12 03:06:00,
2013-06-11 23:07:00,55.5,55.5,29.55,East,90,0.0,0.0,100,0.00,,,-99.99,1.0,HOBO +U30 +Weather +,2013-06-12 03:07:00,
2013-06-11 23:16:00,55.4,55.5,29.55,East,90,0.0,0.0,100,0.00,,,-99.99,1.0,HOBO +U30 +Weather +,2013-06-12 03:16:00,
2013-06-11 23:17:00,55.6,55.6,29.55,East,90,0.0,0.0,100,0.00,,,-99.99,1.0,HOBO +U30 +Weather +,2013-06-12 03:17:00,
2013-06-11 23:26:00,55.3,55.4,29.56,East,90,0.0,0.0,100,0.00,,,-99.99,1.0,HOBO +U30 +Weather +,2013-06-12 03:26:00,
2013-06-11 23:27:00,55.4,55.4,29.56,East,90,0.0,0.0,100,0.00,,,-99.99,1.0,HOBO +U30 +Weather +,2013-06-12 03:27:00,
2013-06-11 23:36:00,55.4,55.4,29.56,East,90,0.0,0.0,100,0.00,,,-99.99,1.0,HOBO +U30 +Weather +,2013-06-12 03:36:00,
2013-06-11 23:46:00,55.4,55.5,29.56,East,90,0.0,0.0,100,0.00,,,-99.99,1.0,HOBO +U30 +Weather +,2013-06-12 03:46:00,
2013-06-11 23:47:00,55.4,55.4,29.56,East,90,0.0,0.0,100,0.00,,,-99.99,1.0,HOBO +U30 +Weather +,2013-06-12 03:47:00,
2013-06-11 23:56:00,55.2,55.2,29.55,East,90,0.0,0.0,100,0.00,,,-99.99,1.0,HOBO +U30 +Weather +,2013-06-12 03:56:00,
2013-06-11 23:57:00,55.3,55.3,29.56,East,90,0.0,0.0,100,0.00,,,-99.99,1.0,HOBO +U30 +Weather +,2013-06-12 03:57:00,